Flight Track Log - Related Links

Times and Time Zones

All times are in EDT time to prevent confusion due to time zone crossing. See the UAL4401 flight status page for this flight to view local times or setup timezone preferences in your user account.

Time Position Orientation Groundspeed Altitude Reporting Facility
EDT Latitude Longitude Course Direction KTS MPH feet Rate Location/Type
Mon 09:12:00 PM 29.9231 -94.9244 97° East  Level FlightAware Approximate
Mon 09:13:00 PM 29.9101 -94.7870 95° East  Level FlightAware Approximate
Mon 09:14:00 PM 29.8981 -94.6494 97° East  Level FlightAware Approximate
Mon 09:15:00 PM 29.8829 -94.5123 97° East  Level FlightAware Approximate
Mon 09:16:00 PM 29.8676 -94.3752 97° East  Level FlightAware Approximate
Mon 09:17:00 PM 29.8500 -94.2422 90° East  Level FlightAware Approximate
Mon 09:18:00 PM 29.8500 -94.1040 90° East  Level FlightAware Approximate
Mon 09:19:00 PM 29.8595 -93.9667 81° East  Level FlightAware Approximate
Mon 09:20:00 PM 29.8713 -93.8296 82° East  Level FlightAware Approximate
Mon 09:21:00 PM 29.8833 -93.6924 90° East  Level FlightAware Approximate
Mon 09:22:00 PM 29.8946 -93.5550 82° East  Level FlightAware Approximate
Mon 09:23:00 PM 29.9107 -93.4180 82° East  Level FlightAware Approximate
Mon 09:24:00 PM 29.9172 -93.2802 78° East  Level FlightAware Approximate
Mon 09:25:00 PM 29.9419 -93.1449 78° East  Level FlightAware Approximate
Mon 09:26:00 PM 29.9577 -93.0079 84° East  Level FlightAware Approximate
Mon 09:27:00 PM 29.9667 -92.8701 90° East  Level FlightAware Approximate
Mon 09:28:00 PM 29.9716 -92.7322 81° East  Level FlightAware Approximate
Mon 09:29:00 PM 29.9862 -92.5951 85° East  Level FlightAware Approximate
Mon 09:30:00 PM 29.9965 -92.4572 85° East  Level FlightAware Approximate
Mon 09:31:00 PM 30.0067 -92.3193 85° East  Level FlightAware Approximate
Mon 09:32:00 PM 30.0168 -92.1814 85° East  Level FlightAware Approximate
Mon 09:33:00 PM 30.0267 -92.0434 85° East  Level FlightAware Approximate
Mon 09:34:00 PM 30.0364 -91.9055 85° East  Level FlightAware Approximate
Mon 09:35:00 PM 30.0460 -91.7675 85° East  Level FlightAware Approximate
Mon 09:36:00 PM 30.0555 -91.6294 85° East  Level FlightAware Approximate
Mon 09:37:00 PM 30.0648 -91.4914 86° East  Level FlightAware Approximate
Mon 09:38:00 PM 30.0740 -91.3533 86° East  Level FlightAware Approximate
Mon 09:39:00 PM 30.0831 -91.2152 86° East  Level FlightAware Approximate
Mon 09:40:00 PM 30.0919 -91.0770 86° East  Level FlightAware Approximate
Mon 09:41:00 PM 30.1027 -90.9393 74° East  Level FlightAware Approximate
Mon 09:42:00 PM 30.1360 -90.8062 74° East  Level FlightAware Approximate
Mon 09:43:00 PM 30.1693 -90.6730 74° East  Level FlightAware Approximate
Mon 09:44:00 PM 30.2026 -90.5398 74° East  Level FlightAware Approximate
Mon 09:45:00 PM 30.2358 -90.4065 74° East  Level FlightAware Approximate
Mon 09:46:00 PM 30.2689 -90.2731 74° East  Level FlightAware Approximate
Mon 09:47:00 PM 30.3018 -90.1397 74° East  Level FlightAware Approximate
Mon 09:48:00 PM 30.3346 -90.0061 74° East  Level FlightAware Approximate
Mon 09:49:00 PM 30.3672 -89.8725 74° East  Level FlightAware Approximate
Mon 09:50:00 PM 30.3997 -89.7388 74° East  Level FlightAware Approximate
Mon 09:51:00 PM 30.4321 -89.6050 74° East  Level FlightAware Approximate
Mon 09:52:00 PM 30.4633 -89.4707 75° East  Level FlightAware Approximate
Mon 09:53:00 PM 30.4942 -89.3364 75° East  Level FlightAware Approximate
Mon 09:54:00 PM 30.5250 -89.2019 75° East  Level FlightAware Approximate
Mon 09:55:00 PM 30.5557 -89.0674 75° East  Level FlightAware Approximate
Mon 09:56:00 PM 30.5863 -88.9328 75° East  Level FlightAware Approximate
Mon 09:57:00 PM 30.6167 -88.7981 75° East  Level FlightAware Approximate
Mon 09:58:00 PM 30.6469 -88.6633 75° East  Level FlightAware Approximate
Mon 09:59:00 PM 30.6770 -88.5284 75° East  Level FlightAware Approximate
Mon 10:00:00 PM 30.7070 -88.3935 75° East  Level FlightAware Approximate
Mon 10:01:00 PM 30.7703 -88.2791 49° Northeast  Level FlightAware Approximate
Mon 10:02:00 PM 30.8495 -88.1742 49° Northeast  Level FlightAware Approximate
Mon 10:03:00 PM 30.9285 -88.0692 49° Northeast  Level FlightAware Approximate
Mon 10:04:00 PM 31.0074 -87.9641 49° Northeast  Level FlightAware Approximate
Mon 10:05:00 PM 31.0863 -87.8587 49° Northeast  Level FlightAware Approximate
Mon 10:06:00 PM 31.1651 -87.7532 49° Northeast  Level FlightAware Approximate
Mon 10:07:00 PM 31.2438 -87.6475 49° Northeast  Level FlightAware Approximate
Mon 10:08:00 PM 31.3189 -87.5383 52° Northeast  Level FlightAware Approximate
Mon 10:09:00 PM 31.3968 -87.4317 49° Northeast  Level FlightAware Approximate
Mon 10:10:00 PM 31.4757 -87.3259 49° Northeast  Level FlightAware Approximate
Mon 10:11:00 PM 31.5544 -87.2199 49° Northeast  Level FlightAware Approximate
Mon 10:12:00 PM 31.6331 -87.1137 49° Northeast  Level FlightAware Approximate
Mon 10:13:00 PM 31.7117 -87.0074 49° Northeast  Level FlightAware Approximate
Mon 10:14:00 PM 31.7902 -86.9009 49° Northeast  Level FlightAware Approximate
Mon 10:15:00 PM 31.8686 -86.7942 49° Northeast  Level FlightAware Approximate
Mon 10:16:00 PM 31.9469 -86.6873 49° Northeast  Level FlightAware Approximate
Mon 10:17:00 PM 32.0251 -86.5802 49° Northeast  Level FlightAware Approximate
Mon 10:18:00 PM 32.1032 -86.4730 49° Northeast  Level FlightAware Approximate
Mon 10:19:00 PM 32.1813 -86.3655 49° Northeast  Level FlightAware Approximate
Mon 10:20:00 PM 32.2572 -86.2559 52° Northeast  Level FlightAware Approximate
Mon 10:21:00 PM 32.3310 -86.1442 53° Northeast  Level FlightAware Approximate
Mon 10:22:00 PM 32.4031 -86.0309 53° Northeast  Level FlightAware Approximate
Mon 10:23:00 PM 32.4767 -85.9188 51° Northeast  Level FlightAware Approximate
Mon 10:24:00 PM 32.5512 -85.8075 52° Northeast  Level FlightAware Approximate
Mon 10:25:00 PM 32.6256 -85.6960 52° Northeast  Level FlightAware Approximate
Mon 10:26:00 PM 32.7000 -85.5843 52° Northeast  Level FlightAware Approximate
Mon 10:27:00 PM 32.7743 -85.4725 52° Northeast  Level FlightAware Approximate
Mon 10:28:00 PM 32.8484 -85.3604 52° Northeast  Level FlightAware Approximate
Mon 10:29:00 PM 32.9225 -85.2482 52° Northeast  Level FlightAware Approximate
Mon 10:30:00 PM 32.9964 -85.1357 52° Northeast  Level FlightAware Approximate
Mon 10:31:00 PM 33.0702 -85.0231 52° Northeast  Level FlightAware Approximate
Mon 10:32:00 PM 33.1440 -84.9103 52° Northeast  Level FlightAware Approximate
Mon 10:33:00 PM 33.2180 -84.7978 52° Northeast  Level FlightAware Approximate
Mon 10:34:00 PM 33.2925 -84.6854 52° Northeast  Level FlightAware Approximate
Mon 10:35:00 PM 33.3668 -84.5729 52° Northeast  Level FlightAware Approximate
Mon 10:36:00 PM 33.4411 -84.4602 52° Northeast  Level FlightAware Approximate
Mon 10:37:00 PM 33.5152 -84.3473 52° Northeast  Level FlightAware Approximate
Mon 10:38:00 PM 33.5892 -84.2342 52° Northeast  Level FlightAware Approximate
Mon 10:39:00 PM 33.6625 -84.1203 53° Northeast  Level FlightAware Approximate
Mon 10:40:00 PM 33.7346 -84.0052 53° Northeast  Level FlightAware Approximate
Mon 10:41:00 PM 33.8066 -83.8899 53° Northeast  Level FlightAware Approximate
Mon 10:42:00 PM 33.8785 -83.7745 53° Northeast  Level FlightAware Approximate
Mon 10:43:00 PM 33.9517 -83.6601 52° Northeast  Level FlightAware Approximate
Mon 10:44:00 PM 34.0249 -83.5456 52° Northeast  Level FlightAware Approximate
Mon 10:45:00 PM 34.0979 -83.4309 52° Northeast  Level FlightAware Approximate
Mon 10:46:00 PM 34.1709 -83.3161 52° Northeast  Level FlightAware Approximate
Mon 10:47:00 PM 34.2438 -83.2010 53° Northeast  Level FlightAware Approximate
Mon 10:48:00 PM 34.3166 -83.0858 53° Northeast  Level FlightAware Approximate
Mon 10:49:00 PM 34.3892 -82.9703 53° Northeast  Level FlightAware Approximate
Mon 10:50:00 PM 34.4615 -82.8544 53° Northeast  Level FlightAware Approximate
Mon 10:51:00 PM 34.5333 -82.7380 53° Northeast  Level FlightAware Approximate
Mon 10:52:00 PM 34.6050 -82.6213 53° Northeast  Level FlightAware Approximate
Mon 10:53:00 PM 34.6767 -82.5045 53° Northeast  Level FlightAware Approximate
Mon 10:54:00 PM 34.7481 -82.3875 53° Northeast  Level FlightAware Approximate
Mon 10:55:00 PM 34.8195 -82.2702 53° Northeast  Level FlightAware Approximate
Mon 10:56:00 PM 34.8908 -82.1528 53° Northeast  Level FlightAware Approximate
Mon 10:57:00 PM 34.9619 -82.0352 54° Northeast  Level FlightAware Approximate
Mon 10:58:00 PM 35.0329 -81.9173 54° Northeast  Level FlightAware Approximate
Mon 10:59:00 PM 35.0902 -81.7887 61° Northeast  Level FlightAware Approximate
Mon 11:00:00 PM 35.1558 -81.6662 56° Northeast  Level FlightAware Approximate
Mon 11:01:00 PM 35.2204 -81.5427 58° Northeast  Level FlightAware Approximate
Mon 11:02:00 PM 35.2830 -81.4175 58° Northeast  Level FlightAware Approximate
Mon 11:03:00 PM 35.3462 -81.2927 57° Northeast  Level FlightAware Approximate
Mon 11:04:00 PM 35.4121 -81.1699 57° Northeast  Level FlightAware Approximate
Mon 11:05:00 PM 35.4778 -81.0469 57° Northeast  Level FlightAware Approximate
Mon 11:06:00 PM 35.5434 -80.9237 57° Northeast  Level FlightAware Approximate
Mon 11:07:00 PM 35.6089 -80.8002 57° Northeast  Level FlightAware Approximate
Mon 11:08:00 PM 35.6742 -80.6766 57° Northeast  Level FlightAware Approximate
Mon 11:09:00 PM 35.7395 -80.5528 57° Northeast  Level FlightAware Approximate
Mon 11:10:00 PM 35.8046 -80.4287 57° Northeast  Level FlightAware Approximate
Mon 11:11:00 PM 35.8695 -80.3045 57° Northeast  Level FlightAware Approximate
Mon 11:12:00 PM 35.9344 -80.1801 57° Northeast  Level FlightAware Approximate
Mon 11:13:00 PM 35.9946 -80.0521 61° Northeast  Level FlightAware Approximate
Mon 11:14:00 PM 36.0582 -79.9269 52° Northeast  Level FlightAware Approximate
Mon 11:15:00 PM 36.1305 -79.8086 55° Northeast  Level FlightAware Approximate
Mon 11:16:00 PM 36.1986 -79.6865 55° Northeast  Level FlightAware Approximate
Mon 11:17:00 PM 36.2666 -79.5641 55° Northeast  Level FlightAware Approximate
Mon 11:18:00 PM 36.3345 -79.4416 55° Northeast  Level FlightAware Approximate
Mon 11:19:00 PM 36.3999 -79.3169 58° Northeast  Level FlightAware Approximate
Mon 11:20:00 PM 36.4722 -79.2088 56° Northeast  Level FlightAware Approximate
Mon 11:21:00 PM 36.5388 -79.0849 56° Northeast  Level FlightAware Approximate
Mon 11:22:00 PM 36.6054 -78.9608 56° Northeast  Level FlightAware Approximate
Mon 11:23:00 PM 36.6717 -78.8364 56° Northeast  Level FlightAware Approximate
Mon 11:24:00 PM 36.7458 -78.6917 58° Northeast  Level FlightAware Approximate
Mon 11:25:00 PM 36.8216 -78.5481 55° Northeast  Level FlightAware Approximate
Mon 11:26:00 PM 36.9001 -78.4067 55° Northeast  Level FlightAware Approximate
Mon 11:27:00 PM 36.9840 -78.2712 53° Northeast  Level FlightAware Approximate
Mon 11:28:00 PM 37.0854 -78.1578 34° Northeast  Level FlightAware Approximate
Mon 11:29:00 PM 37.2010 -78.0640 32° Northeast  Level FlightAware Approximate
Mon 11:30:00 PM 37.3179 -77.9726 32° Northeast  Level FlightAware Approximate
Mon 11:31:00 PM 37.4348 -77.8810 32° Northeast  Level FlightAware Approximate
Mon 11:32:00 PM 37.5546 -77.7963 23° Northeast  Level FlightAware Approximate
Mon 11:33:00 PM 37.6813 -77.7281 23° Northeast  Level FlightAware Approximate
Mon 11:34:00 PM 37.8051 -77.6522 28° Northeast  Level FlightAware Approximate
Mon 11:35:00 PM 37.9280 -77.5799 25° Northeast  Level FlightAware Approximate
Mon 11:36:00 PM 38.0551 -77.5129 31° Northeast  Level FlightAware Approximate
Mon 11:37:00 PM 38.1783 -77.4359 21° North  Level FlightAware Approximate
Mon 11:38:00 PM 38.3025 -77.3654 21° North  Level FlightAware Approximate
Mon 11:39:00 PM 38.4379 -77.3500 North  Level FlightAware Approximate
Mon 11:40:00 PM 38.5756 -77.3500 North  Level FlightAware Approximate
Mon 11:41:00 PM 38.7133 -77.3500 North  Level FlightAware Approximate
Mon 11:42:00 PM 38.8511 -77.3500 North  Level FlightAware Approximate
Mon 11:43:00 PM 38.9474 -77.4599 North  Level Estimated
Mon 11:44:00 PM 38.9474 -77.4599 North  Level Estimated
Mon 11:45:00 PM 38.9474 -77.4599 191° South  Level Estimated
Mon 11:46:00 PM 38.9474 -77.4599 201° Southwest  Level Estimated

Login

Don't have an account? Register now (free) for customized features, flight alerts, and more!